Portada
METAR-TAF:

METAR-TAF

Aeroports :

Amman, Jordània

latitud: 31-59N, longitud: 035-59E, altitud: 767 m

Observació

L'informe es va fer fa 57 minuts, a les 18:00 UTC
Vent calma
Temperatura 21°C
Humitat 73%
Pressió 1017 hPa
Visibilitat: 5000 m
calitja

METAR: OJAM 151800Z 00000KT 5000 HZ NSC 21/16 Q1017 NOSIG

Hora: 21:57 (18:57 UTC)

Pronòstic

L'informe es va fer fa 1 hora i 57 minuts, a les 17:00 UTC
Pronòstic vàlid del 15 a les 18 UTC al 16 a les 24 UTC
Vent 10 kt del Oest/Nord-Oest
Visibilitat: 5000 m
Escasses núvols a una alçada de 3500 ft
calitja
Probabilitat 40%
l' 16 a les 02 UTC al 16 a les 06 UTC
Visibilitat: 3000 m
boirina

TAF: OJAM 151700Z 1518/1624 30010KT 5000 HZ FEW035 PROB40 1602/1606 3000 BR

Observacions i pronòstics meteorològics de més de 4000 aeroports (METAR i TAF).

Les estacions disponibles són els punts grocs i vermells al mapa.

Posi el ratolí al punt desitjat per veure el nom de l'estació.

Feu clic per veure les observacions i els pronòstics meteorològics.

Per canviar el mapa: feu clic els botons verds amb una creu de color negre per apropar; al botó verd amb un guió per allunyar la imatge; o en les fletxes verdes per a mapes adjacents.


METAR-TAF: